sensor_id;sensor_type;location;lat;lon;timestamp;P1;durP1;ratioP1;P2;durP2;ratioP2
34405;SDS011;20658;45.630;8.886;2023-08-06T00:00:37;2.67;;;1.50;;
34405;SDS011;20658;45.630;8.886;2023-08-06T00:03:10;4.20;;;1.35;;
34405;SDS011;20658;45.630;8.886;2023-08-06T00:05:45;4.53;;;1.23;;
34405;SDS011;20658;45.630;8.886;2023-08-06T00:08:19;2.83;;;1.30;;
34405;SDS011;20658;45.630;8.886;2023-08-06T00:10:52;3.25;;;1.63;;
34405;SDS011;20658;45.630;8.886;2023-08-06T00:13:25;1.75;;;1.15;;
34405;SDS011;20658;45.630;8.886;2023-08-06T00:16:07;3.92;;;1.33;;
34405;SDS011;20658;45.630;8.886;2023-08-06T00:18:42;5.50;;;1.55;;
34405;SDS011;20658;45.630;8.886;2023-08-06T00:21:12;4.05;;;1.58;;
34405;SDS011;20658;45.630;8.886;2023-08-06T00:23:45;4.63;;;1.58;;
34405;SDS011;20658;45.630;8.886;2023-08-06T00:26:19;2.88;;;1.20;;
34405;SDS011;20658;45.630;8.886;2023-08-06T00:28:52;4.32;;;1.92;;
34405;SDS011;20658;45.630;8.886;2023-08-06T00:31:25;3.63;;;1.30;;
34405;SDS011;20658;45.630;8.886;2023-08-06T00:33:59;2.20;;;1.30;;
34405;SDS011;20658;45.630;8.886;2023-08-06T00:36:34;2.58;;;1.17;;
34405;SDS011;20658;45.630;8.886;2023-08-06T00:39:07;1.35;;;1.02;;
34405;SDS011;20658;45.630;8.886;2023-08-06T00:41:40;4.78;;;1.40;;
34405;SDS011;20658;45.630;8.886;2023-08-06T00:44:14;2.15;;;1.15;;
34405;SDS011;20658;45.630;8.886;2023-08-06T00:46:42;10.55;;;1.73;;
34405;SDS011;20658;45.630;8.886;2023-08-06T00:49:11;2.88;;;1.50;;
34405;SDS011;20658;45.630;8.886;2023-08-06T00:51:46;2.25;;;1.40;;
34405;SDS011;20658;45.630;8.886;2023-08-06T00:54:20;3.17;;;1.42;;
34405;SDS011;20658;45.630;8.886;2023-08-06T00:56:54;5.55;;;1.63;;
34405;SDS011;20658;45.630;8.886;2023-08-06T00:59:29;4.82;;;1.70;;
34405;SDS011;20658;45.630;8.886;2023-08-06T01:02:04;3.55;;;1.75;;
34405;SDS011;20658;45.630;8.886;2023-08-06T01:04:38;4.25;;;1.67;;
34405;SDS011;20658;45.630;8.886;2023-08-06T01:07:15;4.70;;;1.70;;
34405;SDS011;20658;45.630;8.886;2023-08-06T01:10:09;3.13;;;1.60;;
34405;SDS011;20658;45.630;8.886;2023-08-06T01:13:08;2.97;;;1.50;;
34405;SDS011;20658;45.630;8.886;2023-08-06T01:15:55;5.63;;;2.08;;
34405;SDS011;20658;45.630;8.886;2023-08-06T01:18:30;3.95;;;2.00;;
34405;SDS011;20658;45.630;8.886;2023-08-06T01:21:05;2.95;;;1.23;;
34405;SDS011;20658;45.630;8.886;2023-08-06T01:23:39;5.32;;;1.38;;
34405;SDS011;20658;45.630;8.886;2023-08-06T01:26:15;6.90;;;2.22;;
34405;SDS011;20658;45.630;8.886;2023-08-06T01:28:56;4.75;;;2.10;;
34405;SDS011;20658;45.630;8.886;2023-08-06T01:31:37;5.13;;;1.63;;
34405;SDS011;20658;45.630;8.886;2023-08-06T01:34:13;4.75;;;1.70;;
34405;SDS011;20658;45.630;8.886;2023-08-06T01:36:51;4.00;;;1.70;;
34405;SDS011;20658;45.630;8.886;2023-08-06T01:39:25;6.88;;;1.88;;
34405;SDS011;20658;45.630;8.886;2023-08-06T01:42:01;5.25;;;2.15;;
34405;SDS011;20658;45.630;8.886;2023-08-06T01:44:36;7.22;;;2.50;;
34405;SDS011;20658;45.630;8.886;2023-08-06T01:47:09;8.60;;;3.85;;
34405;SDS011;20658;45.630;8.886;2023-08-06T01:49:42;8.38;;;4.15;;
34405;SDS011;20658;45.630;8.886;2023-08-06T01:52:19;7.28;;;2.65;;
34405;SDS011;20658;45.630;8.886;2023-08-06T01:54:52;9.48;;;2.85;;
34405;SDS011;20658;45.630;8.886;2023-08-06T01:57:26;6.63;;;2.78;;
34405;SDS011;20658;45.630;8.886;2023-08-06T01:59:54;7.28;;;2.25;;
34405;SDS011;20658;45.630;8.886;2023-08-06T02:02:38;4.90;;;2.47;;
34405;SDS011;20658;45.630;8.886;2023-08-06T02:05:12;10.20;;;5.57;;
34405;SDS011;20658;45.630;8.886;2023-08-06T02:07:42;5.22;;;2.50;;
34405;SDS011;20658;45.630;8.886;2023-08-06T02:10:15;8.18;;;2.78;;
34405;SDS011;20658;45.630;8.886;2023-08-06T02:12:49;5.28;;;2.30;;
34405;SDS011;20658;45.630;8.886;2023-08-06T02:15:22;3.95;;;2.17;;
34405;SDS011;20658;45.630;8.886;2023-08-06T02:17:56;2.92;;;2.08;;
34405;SDS011;20658;45.630;8.886;2023-08-06T02:20:29;3.88;;;1.80;;
34405;SDS011;20658;45.630;8.886;2023-08-06T02:23:04;3.40;;;1.88;;
34405;SDS011;20658;45.630;8.886;2023-08-06T02:25:37;4.93;;;1.90;;
34405;SDS011;20658;45.630;8.886;2023-08-06T02:28:11;7.10;;;1.90;;
34405;SDS011;20658;45.630;8.886;2023-08-06T02:30:49;4.97;;;2.22;;
34405;SDS011;20658;45.630;8.886;2023-08-06T02:33:23;4.90;;;2.28;;
34405;SDS011;20658;45.630;8.886;2023-08-06T02:35:54;2.80;;;1.67;;
34405;SDS011;20658;45.630;8.886;2023-08-06T02:38:29;4.93;;;2.05;;
34405;SDS011;20658;45.630;8.886;2023-08-06T02:41:03;4.35;;;1.70;;
34405;SDS011;20658;45.630;8.886;2023-08-06T02:43:37;3.15;;;1.95;;
34405;SDS011;20658;45.630;8.886;2023-08-06T02:46:11;3.90;;;1.90;;
34405;SDS011;20658;45.630;8.886;2023-08-06T02:48:44;3.10;;;1.75;;
34405;SDS011;20658;45.630;8.886;2023-08-06T02:51:18;5.28;;;1.80;;
34405;SDS011;20658;45.630;8.886;2023-08-06T02:53:52;3.50;;;1.45;;
34405;SDS011;20658;45.630;8.886;2023-08-06T02:56:26;4.65;;;1.73;;
34405;SDS011;20658;45.630;8.886;2023-08-06T02:59:08;8.90;;;2.25;;
34405;SDS011;20658;45.630;8.886;2023-08-06T03:01:50;9.52;;;1.58;;
34405;SDS011;20658;45.630;8.886;2023-08-06T03:04:31;4.32;;;1.95;;
34405;SDS011;20658;45.630;8.886;2023-08-06T03:07:05;5.07;;;1.80;;
34405;SDS011;20658;45.630;8.886;2023-08-06T03:09:49;4.28;;;1.95;;
34405;SDS011;20658;45.630;8.886;2023-08-06T03:12:22;3.28;;;1.40;;
34405;SDS011;20658;45.630;8.886;2023-08-06T03:14:58;4.95;;;1.98;;
34405;SDS011;20658;45.630;8.886;2023-08-06T03:17:31;5.05;;;1.92;;
34405;SDS011;20658;45.630;8.886;2023-08-06T03:20:06;2.45;;;1.45;;
34405;SDS011;20658;45.630;8.886;2023-08-06T03:22:41;5.70;;;1.52;;
34405;SDS011;20658;45.630;8.886;2023-08-06T03:25:16;6.07;;;2.00;;
34405;SDS011;20658;45.630;8.886;2023-08-06T03:27:49;2.58;;;1.58;;
34405;SDS011;20658;45.630;8.886;2023-08-06T03:30:23;5.57;;;1.77;;
34405;SDS011;20658;45.630;8.886;2023-08-06T03:32:56;3.00;;;1.65;;
34405;SDS011;20658;45.630;8.886;2023-08-06T03:35:30;5.60;;;1.73;;
34405;SDS011;20658;45.630;8.886;2023-08-06T03:38:04;11.65;;;2.03;;
34405;SDS011;20658;45.630;8.886;2023-08-06T03:40:39;2.55;;;1.35;;
34405;SDS011;20658;45.630;8.886;2023-08-06T03:43:12;3.75;;;1.45;;
34405;SDS011;20658;45.630;8.886;2023-08-06T03:45:46;7.50;;;1.95;;
34405;SDS011;20658;45.630;8.886;2023-08-06T03:48:20;6.07;;;2.10;;
34405;SDS011;20658;45.630;8.886;2023-08-06T03:50:53;7.28;;;1.75;;
34405;SDS011;20658;45.630;8.886;2023-08-06T03:53:27;4.80;;;1.58;;
34405;SDS011;20658;45.630;8.886;2023-08-06T03:55:57;3.28;;;1.38;;
34405;SDS011;20658;45.630;8.886;2023-08-06T03:58:32;7.32;;;1.70;;
34405;SDS011;20658;45.630;8.886;2023-08-06T04:01:06;4.65;;;1.30;;
34405;SDS011;20658;45.630;8.886;2023-08-06T04:03:43;2.03;;;1.10;;
34405;SDS011;20658;45.630;8.886;2023-08-06T04:06:16;2.95;;;1.15;;
34405;SDS011;20658;45.630;8.886;2023-08-06T04:08:51;2.75;;;1.10;;
34405;SDS011;20658;45.630;8.886;2023-08-06T04:11:26;4.82;;;1.30;;
34405;SDS011;20658;45.630;8.886;2023-08-06T04:13:59;4.93;;;1.00;;
34405;SDS011;20658;45.630;8.886;2023-08-06T04:16:33;1.70;;;1.10;;
34405;SDS011;20658;45.630;8.886;2023-08-06T04:19:07;3.95;;;1.10;;
34405;SDS011;20658;45.630;8.886;2023-08-06T04:21:41;2.58;;;1.00;;
34405;SDS011;20658;45.630;8.886;2023-08-06T04:24:14;1.83;;;0.80;;
34405;SDS011;20658;45.630;8.886;2023-08-06T04:26:49;3.00;;;0.80;;
34405;SDS011;20658;45.630;8.886;2023-08-06T04:29:23;2.50;;;1.15;;
34405;SDS011;20658;45.630;8.886;2023-08-06T04:31:57;1.55;;;1.00;;
34405;SDS011;20658;45.630;8.886;2023-08-06T04:34:32;3.35;;;1.00;;
34405;SDS011;20658;45.630;8.886;2023-08-06T04:37:06;2.83;;;1.10;;
34405;SDS011;20658;45.630;8.886;2023-08-06T04:39:34;7.20;;;1.20;;
34405;SDS011;20658;45.630;8.886;2023-08-06T04:42:10;5.75;;;1.25;;
34405;SDS011;20658;45.630;8.886;2023-08-06T04:44:43;9.75;;;2.03;;
34405;SDS011;20658;45.630;8.886;2023-08-06T04:47:16;7.95;;;1.10;;
34405;SDS011;20658;45.630;8.886;2023-08-06T04:49:50;9.05;;;1.30;;
34405;SDS011;20658;45.630;8.886;2023-08-06T04:52:23;2.45;;;1.17;;
34405;SDS011;20658;45.630;8.886;2023-08-06T04:54:59;3.47;;;1.08;;
34405;SDS011;20658;45.630;8.886;2023-08-06T04:57:33;3.83;;;1.13;;
34405;SDS011;20658;45.630;8.886;2023-08-06T05:00:07;4.30;;;1.10;;
34405;SDS011;20658;45.630;8.886;2023-08-06T05:02:41;13.50;;;1.50;;
34405;SDS011;20658;45.630;8.886;2023-08-06T05:05:14;8.60;;;1.20;;
34405;SDS011;20658;45.630;8.886;2023-08-06T05:07:48;2.95;;;0.95;;
34405;SDS011;20658;45.630;8.886;2023-08-06T05:10:24;3.35;;;1.00;;
34405;SDS011;20658;45.630;8.886;2023-08-06T05:12:58;4.78;;;0.98;;
34405;SDS011;20658;45.630;8.886;2023-08-06T05:15:32;2.28;;;0.80;;
34405;SDS011;20658;45.630;8.886;2023-08-06T05:18:05;2.72;;;0.80;;
34405;SDS011;20658;45.630;8.886;2023-08-06T05:20:40;3.90;;;0.93;;
34405;SDS011;20658;45.630;8.886;2023-08-06T05:23:14;3.45;;;0.98;;
34405;SDS011;20658;45.630;8.886;2023-08-06T05:25:48;3.83;;;0.93;;
34405;SDS011;20658;45.630;8.886;2023-08-06T05:28:23;3.72;;;0.73;;
34405;SDS011;20658;45.630;8.886;2023-08-06T05:30:56;3.70;;;0.80;;
34405;SDS011;20658;45.630;8.886;2023-08-06T05:33:29;4.03;;;0.90;;
34405;SDS011;20658;45.630;8.886;2023-08-06T05:36:03;4.38;;;1.00;;
34405;SDS011;20658;45.630;8.886;2023-08-06T05:38:37;3.55;;;1.00;;
34405;SDS011;20658;45.630;8.886;2023-08-06T05:41:10;2.15;;;0.85;;
34405;SDS011;20658;45.630;8.886;2023-08-06T05:43:45;5.30;;;0.80;;
34405;SDS011;20658;45.630;8.886;2023-08-06T05:46:19;3.78;;;0.88;;
34405;SDS011;20658;45.630;8.886;2023-08-06T05:48:52;6.55;;;1.15;;
34405;SDS011;20658;45.630;8.886;2023-08-06T05:51:26;4.28;;;1.17;;
34405;SDS011;20658;45.630;8.886;2023-08-06T05:54:00;6.93;;;1.02;;
34405;SDS011;20658;45.630;8.886;2023-08-06T05:56:33;7.38;;;0.98;;
34405;SDS011;20658;45.630;8.886;2023-08-06T05:59:08;3.40;;;1.42;;
34405;SDS011;20658;45.630;8.886;2023-08-06T06:01:41;3.45;;;0.98;;
34405;SDS011;20658;45.630;8.886;2023-08-06T06:04:15;9.95;;;1.27;;
34405;SDS011;20658;45.630;8.886;2023-08-06T06:06:48;2.10;;;0.80;;
34405;SDS011;20658;45.630;8.886;2023-08-06T06:09:21;0.93;;;0.60;;
34405;SDS011;20658;45.630;8.886;2023-08-06T06:11:55;6.00;;;1.00;;
34405;SDS011;20658;45.630;8.886;2023-08-06T06:14:30;5.22;;;0.95;;
34405;SDS011;20658;45.630;8.886;2023-08-06T06:17:03;5.35;;;1.17;;
34405;SDS011;20658;45.630;8.886;2023-08-06T06:19:37;2.17;;;0.95;;
34405;SDS011;20658;45.630;8.886;2023-08-06T06:22:10;1.88;;;1.02;;
34405;SDS011;20658;45.630;8.886;2023-08-06T06:24:43;1.58;;;1.13;;
34405;SDS011;20658;45.630;8.886;2023-08-06T06:27:17;2.28;;;1.13;;
34405;SDS011;20658;45.630;8.886;2023-08-06T06:29:52;1.70;;;0.80;;
34405;SDS011;20658;45.630;8.886;2023-08-06T06:32:26;5.25;;;0.88;;
34405;SDS011;20658;45.630;8.886;2023-08-06T06:34:59;2.13;;;0.80;;
34405;SDS011;20658;45.630;8.886;2023-08-06T06:37:28;2.88;;;1.08;;
34405;SDS011;20658;45.630;8.886;2023-08-06T06:40:02;4.40;;;0.98;;
34405;SDS011;20658;45.630;8.886;2023-08-06T06:42:36;7.55;;;1.10;;
34405;SDS011;20658;45.630;8.886;2023-08-06T06:45:11;1.15;;;0.80;;
34405;SDS011;20658;45.630;8.886;2023-08-06T06:47:44;2.78;;;0.93;;
34405;SDS011;20658;45.630;8.886;2023-08-06T06:50:17;3.33;;;1.02;;
34405;SDS011;20658;45.630;8.886;2023-08-06T06:52:51;1.77;;;1.00;;
34405;SDS011;20658;45.630;8.886;2023-08-06T06:55:24;1.00;;;0.65;;
34405;SDS011;20658;45.630;8.886;2023-08-06T06:57:57;2.40;;;1.20;;
34405;SDS011;20658;45.630;8.886;2023-08-06T07:00:32;2.17;;;0.93;;
34405;SDS011;20658;45.630;8.886;2023-08-06T07:03:08;1.85;;;1.00;;
34405;SDS011;20658;45.630;8.886;2023-08-06T07:05:42;2.00;;;1.08;;
34405;SDS011;20658;45.630;8.886;2023-08-06T07:08:16;4.47;;;1.38;;
34405;SDS011;20658;45.630;8.886;2023-08-06T07:10:50;1.35;;;0.85;;
34405;SDS011;20658;45.630;8.886;2023-08-06T07:13:23;4.22;;;1.23;;
34405;SDS011;20658;45.630;8.886;2023-08-06T07:15:58;1.55;;;0.73;;
34405;SDS011;20658;45.630;8.886;2023-08-06T07:18:31;1.23;;;0.60;;
34405;SDS011;20658;45.630;8.886;2023-08-06T07:21:05;3.30;;;0.95;;
34405;SDS011;20658;45.630;8.886;2023-08-06T07:23:38;2.78;;;0.70;;
34405;SDS011;20658;45.630;8.886;2023-08-06T07:26:11;1.50;;;0.93;;
34405;SDS011;20658;45.630;8.886;2023-08-06T07:28:45;2.90;;;1.00;;
34405;SDS011;20658;45.630;8.886;2023-08-06T07:31:20;1.92;;;0.93;;
34405;SDS011;20658;45.630;8.886;2023-08-06T07:33:53;2.95;;;0.90;;
34405;SDS011;20658;45.630;8.886;2023-08-06T07:36:26;3.40;;;0.80;;
34405;SDS011;20658;45.630;8.886;2023-08-06T07:39:00;2.22;;;0.80;;
34405;SDS011;20658;45.630;8.886;2023-08-06T07:41:29;3.72;;;0.90;;
34405;SDS011;20658;45.630;8.886;2023-08-06T07:44:02;4.05;;;0.90;;
34405;SDS011;20658;45.630;8.886;2023-08-06T07:46:37;2.58;;;1.42;;
34405;SDS011;20658;45.630;8.886;2023-08-06T07:49:11;2.53;;;0.90;;
34405;SDS011;20658;45.630;8.886;2023-08-06T07:51:44;0.88;;;0.57;;
34405;SDS011;20658;45.630;8.886;2023-08-06T07:54:18;3.05;;;0.80;;
34405;SDS011;20658;45.630;8.886;2023-08-06T07:56:51;1.00;;;0.60;;
34405;SDS011;20658;45.630;8.886;2023-08-06T07:59:25;2.50;;;0.85;;
34405;SDS011;20658;45.630;8.886;2023-08-06T08:01:59;3.80;;;0.70;;
34405;SDS011;20658;45.630;8.886;2023-08-06T08:04:33;2.50;;;0.82;;
34405;SDS011;20658;45.630;8.886;2023-08-06T08:07:01;1.48;;;1.02;;
34405;SDS011;20658;45.630;8.886;2023-08-06T08:09:35;3.47;;;0.80;;
34405;SDS011;20658;45.630;8.886;2023-08-06T08:12:09;1.30;;;0.82;;
34405;SDS011;20658;45.630;8.886;2023-08-06T08:14:42;4.60;;;1.40;;
34405;SDS011;20658;45.630;8.886;2023-08-06T08:17:18;1.73;;;0.95;;
34405;SDS011;20658;45.630;8.886;2023-08-06T08:19:51;1.65;;;0.90;;
34405;SDS011;20658;45.630;8.886;2023-08-06T08:22:24;4.32;;;1.00;;
34405;SDS011;20658;45.630;8.886;2023-08-06T08:24:58;3.20;;;0.98;;
34405;SDS011;20658;45.630;8.886;2023-08-06T08:27:31;2.63;;;0.85;;
34405;SDS011;20658;45.630;8.886;2023-08-06T08:30:05;1.83;;;1.00;;
34405;SDS011;20658;45.630;8.886;2023-08-06T08:32:41;2.70;;;0.85;;
34405;SDS011;20658;45.630;8.886;2023-08-06T08:35:10;1.65;;;1.10;;
34405;SDS011;20658;45.630;8.886;2023-08-06T08:37:44;6.88;;;2.28;;
34405;SDS011;20658;45.630;8.886;2023-08-06T08:40:17;3.33;;;0.90;;
34405;SDS011;20658;45.630;8.886;2023-08-06T08:42:51;2.15;;;0.98;;
34405;SDS011;20658;45.630;8.886;2023-08-06T08:45:26;1.58;;;0.70;;
34405;SDS011;20658;45.630;8.886;2023-08-06T08:48:03;3.05;;;0.90;;
34405;SDS011;20658;45.630;8.886;2023-08-06T08:50:37;1.40;;;0.70;;
34405;SDS011;20658;45.630;8.886;2023-08-06T08:53:11;1.67;;;0.73;;
34405;SDS011;20658;45.630;8.886;2023-08-06T08:55:47;2.50;;;1.10;;
34405;SDS011;20658;45.630;8.886;2023-08-06T08:58:21;2.83;;;0.82;;
34405;SDS011;20658;45.630;8.886;2023-08-06T09:00:55;2.35;;;1.10;;
34405;SDS011;20658;45.630;8.886;2023-08-06T09:03:29;1.50;;;0.85;;
34405;SDS011;20658;45.630;8.886;2023-08-06T09:06:05;4.65;;;1.20;;
34405;SDS011;20658;45.630;8.886;2023-08-06T09:08:40;2.28;;;1.15;;
34405;SDS011;20658;45.630;8.886;2023-08-06T09:11:19;5.60;;;1.02;;
34405;SDS011;20658;45.630;8.886;2023-08-06T09:13:54;1.40;;;0.82;;
34405;SDS011;20658;45.630;8.886;2023-08-06T09:16:29;2.60;;;1.40;;
34405;SDS011;20658;45.630;8.886;2023-08-06T09:19:10;2.08;;;1.08;;
34405;SDS011;20658;45.630;8.886;2023-08-06T09:24:20;2.67;;;0.80;;
34405;SDS011;20658;45.630;8.886;2023-08-06T09:26:53;1.63;;;0.73;;
34405;SDS011;20658;45.630;8.886;2023-08-06T09:29:26;1.63;;;0.70;;
34405;SDS011;20658;45.630;8.886;2023-08-06T09:32:04;2.20;;;0.60;;
34405;SDS011;20658;45.630;8.886;2023-08-06T09:34:41;1.30;;;0.90;;
34405;SDS011;20658;45.630;8.886;2023-08-06T09:37:15;0.98;;;0.75;;
34405;SDS011;20658;45.630;8.886;2023-08-06T09:39:48;3.22;;;0.73;;
34405;SDS011;20658;45.630;8.886;2023-08-06T09:42:23;1.48;;;0.88;;
34405;SDS011;20658;45.630;8.886;2023-08-06T09:45:05;1.75;;;0.68;;
34405;SDS011;20658;45.630;8.886;2023-08-06T09:47:39;2.83;;;1.00;;
34405;SDS011;20658;45.630;8.886;2023-08-06T09:50:16;3.33;;;0.82;;
34405;SDS011;20658;45.630;8.886;2023-08-06T09:52:50;1.70;;;0.90;;
34405;SDS011;20658;45.630;8.886;2023-08-06T09:55:25;1.58;;;0.52;;
34405;SDS011;20658;45.630;8.886;2023-08-06T09:57:59;3.13;;;1.15;;
34405;SDS011;20658;45.630;8.886;2023-08-06T10:00:34;3.60;;;0.93;;
34405;SDS011;20658;45.630;8.886;2023-08-06T10:03:07;2.72;;;0.82;;
34405;SDS011;20658;45.630;8.886;2023-08-06T10:05:46;2.67;;;0.82;;
34405;SDS011;20658;45.630;8.886;2023-08-06T10:08:20;1.20;;;0.80;;
34405;SDS011;20658;45.630;8.886;2023-08-06T10:10:53;1.10;;;0.77;;
34405;SDS011;20658;45.630;8.886;2023-08-06T10:13:23;6.38;;;2.13;;
34405;SDS011;20658;45.630;8.886;2023-08-06T10:15:57;3.42;;;2.15;;
34405;SDS011;20658;45.630;8.886;2023-08-06T10:18:31;1.10;;;0.60;;
34405;SDS011;20658;45.630;8.886;2023-08-06T10:21:08;1.25;;;0.77;;
34405;SDS011;20658;45.630;8.886;2023-08-06T10:23:40;1.73;;;0.60;;
34405;SDS011;20658;45.630;8.886;2023-08-06T10:26:09;3.20;;;0.75;;
34405;SDS011;20658;45.630;8.886;2023-08-06T10:28:42;0.65;;;0.40;;
34405;SDS011;20658;45.630;8.886;2023-08-06T10:31:16;3.20;;;0.93;;
34405;SDS011;20658;45.630;8.886;2023-08-06T10:33:46;1.05;;;0.68;;
34405;SDS011;20658;45.630;8.886;2023-08-06T10:36:22;1.88;;;0.55;;
34405;SDS011;20658;45.630;8.886;2023-08-06T10:38:59;2.38;;;0.82;;
34405;SDS011;20658;45.630;8.886;2023-08-06T10:41:33;1.77;;;0.55;;
34405;SDS011;20658;45.630;8.886;2023-08-06T10:44:07;1.73;;;0.40;;
34405;SDS011;20658;45.630;8.886;2023-08-06T10:46:41;2.08;;;0.73;;
34405;SDS011;20658;45.630;8.886;2023-08-06T10:49:15;1.27;;;0.60;;
34405;SDS011;20658;45.630;8.886;2023-08-06T10:51:52;2.28;;;0.60;;
34405;SDS011;20658;45.630;8.886;2023-08-06T10:54:26;5.80;;;1.60;;
34405;SDS011;20658;45.630;8.886;2023-08-06T10:56:59;1.88;;;0.80;;
34405;SDS011;20658;45.630;8.886;2023-08-06T10:59:33;1.23;;;0.80;;
34405;SDS011;20658;45.630;8.886;2023-08-06T11:02:06;2.80;;;0.50;;
34405;SDS011;20658;45.630;8.886;2023-08-06T11:04:41;1.45;;;0.88;;
34405;SDS011;20658;45.630;8.886;2023-08-06T11:07:16;3.60;;;0.98;;
34405;SDS011;20658;45.630;8.886;2023-08-06T11:09:50;2.72;;;0.90;;
34405;SDS011;20658;45.630;8.886;2023-08-06T11:12:25;4.47;;;1.70;;
34405;SDS011;20658;45.630;8.886;2023-08-06T11:14:59;4.10;;;1.80;;
34405;SDS011;20658;45.630;8.886;2023-08-06T11:17:34;2.45;;;1.45;;
34405;SDS011;20658;45.630;8.886;2023-08-06T11:20:08;3.97;;;0.93;;
34405;SDS011;20658;45.630;8.886;2023-08-06T11:22:44;1.67;;;0.80;;
34405;SDS011;20658;45.630;8.886;2023-08-06T11:25:19;2.58;;;1.00;;
34405;SDS011;20658;45.630;8.886;2023-08-06T11:27:53;1.65;;;0.65;;
34405;SDS011;20658;45.630;8.886;2023-08-06T11:30:27;0.90;;;0.70;;
34405;SDS011;20658;45.630;8.886;2023-08-06T11:33:00;1.13;;;0.60;;
34405;SDS011;20658;45.630;8.886;2023-08-06T11:35:34;1.35;;;0.65;;
34405;SDS011;20658;45.630;8.886;2023-08-06T11:38:09;0.93;;;0.50;;
34405;SDS011;20658;45.630;8.886;2023-08-06T11:40:43;1.02;;;0.60;;
34405;SDS011;20658;45.630;8.886;2023-08-06T11:43:17;1.42;;;0.68;;
34405;SDS011;20658;45.630;8.886;2023-08-06T11:45:54;1.27;;;0.75;;
34405;SDS011;20658;45.630;8.886;2023-08-06T11:48:29;2.95;;;1.00;;
34405;SDS011;20658;45.630;8.886;2023-08-06T11:51:02;5.82;;;1.15;;
34405;SDS011;20658;45.630;8.886;2023-08-06T11:53:38;1.60;;;0.85;;
34405;SDS011;20658;45.630;8.886;2023-08-06T11:56:12;1.20;;;0.65;;
34405;SDS011;20658;45.630;8.886;2023-08-06T11:58:45;2.97;;;0.80;;
34405;SDS011;20658;45.630;8.886;2023-08-06T12:01:19;1.50;;;0.70;;
34405;SDS011;20658;45.630;8.886;2023-08-06T12:03:52;3.42;;;0.90;;
34405;SDS011;20658;45.630;8.886;2023-08-06T12:06:41;1.83;;;0.65;;
34405;SDS011;20658;45.630;8.886;2023-08-06T12:09:16;0.73;;;0.60;;
34405;SDS011;20658;45.630;8.886;2023-08-06T12:11:50;3.17;;;0.70;;
34405;SDS011;20658;45.630;8.886;2023-08-06T12:14:23;1.10;;;0.50;;
34405;SDS011;20658;45.630;8.886;2023-08-06T12:16:57;1.80;;;0.50;;
34405;SDS011;20658;45.630;8.886;2023-08-06T12:19:31;2.80;;;1.08;;
34405;SDS011;20658;45.630;8.886;2023-08-06T12:22:06;3.40;;;0.70;;
34405;SDS011;20658;45.630;8.886;2023-08-06T12:24:42;2.30;;;0.88;;
34405;SDS011;20658;45.630;8.886;2023-08-06T12:27:11;3.33;;;0.60;;
34405;SDS011;20658;45.630;8.886;2023-08-06T12:29:46;3.03;;;0.73;;
34405;SDS011;20658;45.630;8.886;2023-08-06T12:32:21;1.88;;;0.47;;
34405;SDS011;20658;45.630;8.886;2023-08-06T12:34:54;0.63;;;0.43;;
34405;SDS011;20658;45.630;8.886;2023-08-06T12:37:28;0.55;;;0.32;;
34405;SDS011;20658;45.630;8.886;2023-08-06T12:40:03;3.17;;;0.50;;
34405;SDS011;20658;45.630;8.886;2023-08-06T12:42:40;2.90;;;0.10;;
34405;SDS011;20658;45.630;8.886;2023-08-06T12:45:13;1.05;;;0.38;;
34405;SDS011;20658;45.630;8.886;2023-08-06T12:47:52;6.60;;;0.32;;
34405;SDS011;20658;45.630;8.886;2023-08-06T12:50:26;0.95;;;0.30;;
34405;SDS011;20658;45.630;8.886;2023-08-06T12:53:00;0.93;;;0.30;;
34405;SDS011;20658;45.630;8.886;2023-08-06T12:55:38;0.43;;;0.30;;
34405;SDS011;20658;45.630;8.886;2023-08-06T12:58:07;0.85;;;0.35;;
34405;SDS011;20658;45.630;8.886;2023-08-06T13:00:40;0.65;;;0.20;;
34405;SDS011;20658;45.630;8.886;2023-08-06T13:03:14;0.75;;;0.40;;
34405;SDS011;20658;45.630;8.886;2023-08-06T13:05:47;0.60;;;0.20;;
34405;SDS011;20658;45.630;8.886;2023-08-06T13:08:21;0.80;;;0.40;;
34405;SDS011;20658;45.630;8.886;2023-08-06T13:10:55;0.52;;;0.17;;
34405;SDS011;20658;45.630;8.886;2023-08-06T13:13:29;0.20;;;0.20;;
34405;SDS011;20658;45.630;8.886;2023-08-06T13:16:02;3.83;;;0.45;;
34405;SDS011;20658;45.630;8.886;2023-08-06T13:18:36;1.98;;;0.30;;
34405;SDS011;20658;45.630;8.886;2023-08-06T13:21:12;1.08;;;0.45;;
34405;SDS011;20658;45.630;8.886;2023-08-06T13:23:46;1.23;;;0.22;;
34405;SDS011;20658;45.630;8.886;2023-08-06T13:26:21;0.57;;;0.30;;
34405;SDS011;20658;45.630;8.886;2023-08-06T13:28:54;0.98;;;0.50;;
34405;SDS011;20658;45.630;8.886;2023-08-06T13:31:29;3.00;;;0.20;;
34405;SDS011;20658;45.630;8.886;2023-08-06T13:34:03;0.68;;;0.25;;
34405;SDS011;20658;45.630;8.886;2023-08-06T13:36:36;0.50;;;0.30;;
34405;SDS011;20658;45.630;8.886;2023-08-06T13:39:10;0.47;;;0.20;;
34405;SDS011;20658;45.630;8.886;2023-08-06T13:41:45;0.55;;;0.30;;
34405;SDS011;20658;45.630;8.886;2023-08-06T13:44:18;0.70;;;0.20;;
34405;SDS011;20658;45.630;8.886;2023-08-06T13:46:52;0.20;;;0.20;;
34405;SDS011;20658;45.630;8.886;2023-08-06T13:49:25;0.55;;;0.30;;
34405;SDS011;20658;45.630;8.886;2023-08-06T13:51:58;0.40;;;0.35;;
34405;SDS011;20658;45.630;8.886;2023-08-06T13:54:32;1.33;;;0.40;;
34405;SDS011;20658;45.630;8.886;2023-08-06T13:57:07;1.08;;;0.30;;
34405;SDS011;20658;45.630;8.886;2023-08-06T13:59:40;2.17;;;0.30;;
34405;SDS011;20658;45.630;8.886;2023-08-06T14:02:15;1.13;;;0.40;;
34405;SDS011;20658;45.630;8.886;2023-08-06T14:04:48;0.20;;;0.10;;
34405;SDS011;20658;45.630;8.886;2023-08-06T14:07:22;0.50;;;0.22;;
34405;SDS011;20658;45.630;8.886;2023-08-06T14:09:55;4.30;;;0.30;;
34405;SDS011;20658;45.630;8.886;2023-08-06T14:12:31;0.65;;;0.30;;
34405;SDS011;20658;45.630;8.886;2023-08-06T14:15:04;3.53;;;0.40;;
34405;SDS011;20658;45.630;8.886;2023-08-06T14:17:39;1.75;;;0.60;;
34405;SDS011;20658;45.630;8.886;2023-08-06T14:20:12;0.40;;;0.13;;
34405;SDS011;20658;45.630;8.886;2023-08-06T14:22:46;0.45;;;0.30;;
34405;SDS011;20658;45.630;8.886;2023-08-06T14:25:19;0.32;;;0.25;;
34405;SDS011;20658;45.630;8.886;2023-08-06T14:27:54;0.55;;;0.40;;
34405;SDS011;20658;45.630;8.886;2023-08-06T14:30:28;3.55;;;0.30;;
34405;SDS011;20658;45.630;8.886;2023-08-06T14:33:01;0.70;;;0.22;;
34405;SDS011;20658;45.630;8.886;2023-08-06T14:35:35;2.78;;;0.35;;
34405;SDS011;20658;45.630;8.886;2023-08-06T14:38:09;0.75;;;0.43;;
34405;SDS011;20658;45.630;8.886;2023-08-06T14:40:43;0.45;;;0.40;;
34405;SDS011;20658;45.630;8.886;2023-08-06T14:43:18;2.88;;;0.32;;
34405;SDS011;20658;45.630;8.886;2023-08-06T14:45:51;2.47;;;0.40;;
34405;SDS011;20658;45.630;8.886;2023-08-06T14:48:25;4.10;;;0.47;;
34405;SDS011;20658;45.630;8.886;2023-08-06T14:50:58;0.75;;;0.30;;
34405;SDS011;20658;45.630;8.886;2023-08-06T14:53:32;0.55;;;0.10;;
34405;SDS011;20658;45.630;8.886;2023-08-06T14:56:05;0.50;;;0.30;;
34405;SDS011;20658;45.630;8.886;2023-08-06T14:58:40;0.47;;;0.20;;
34405;SDS011;20658;45.630;8.886;2023-08-06T15:01:14;1.38;;;0.30;;
34405;SDS011;20658;45.630;8.886;2023-08-06T15:03:47;1.02;;;0.38;;
34405;SDS011;20658;45.630;8.886;2023-08-06T15:06:21;1.05;;;0.20;;
34405;SDS011;20658;45.630;8.886;2023-08-06T15:08:54;0.95;;;0.25;;
34405;SDS011;20658;45.630;8.886;2023-08-06T15:11:32;0.50;;;0.30;;
34405;SDS011;20658;45.630;8.886;2023-08-06T15:14:06;0.45;;;0.25;;
34405;SDS011;20658;45.630;8.886;2023-08-06T15:16:40;0.60;;;0.30;;
34405;SDS011;20658;45.630;8.886;2023-08-06T15:19:13;0.80;;;0.20;;
34405;SDS011;20658;45.630;8.886;2023-08-06T15:21:47;7.28;;;0.40;;
34405;SDS011;20658;45.630;8.886;2023-08-06T15:24:20;0.50;;;0.35;;
34405;SDS011;20658;45.630;8.886;2023-08-06T15:26:54;0.65;;;0.20;;
34405;SDS011;20658;45.630;8.886;2023-08-06T15:29:29;2.83;;;0.40;;
34405;SDS011;20658;45.630;8.886;2023-08-06T15:32:02;0.65;;;0.22;;